Time;durP1;ratioP1;P1;durP2;ratioP2;P2;SDS_P1;SDS_P2;PMS_P1;PMS_P2;Temp;Humidity;BMP_temperature;BMP_pressure;BME280_temperature;BME280_humidity;BME280_pressure;Samples;Min_cycle;Max_cycle;Signal;HPM_P1;HPM_P2
2022/03/12 00:00:48;;;;;;;0.00;0.00;;;9.60;99.90;;;;;;5056280;28;20196;-61
2022/03/12 00:03:16;;;;;;;0.00;0.00;;;9.60;99.90;;;;;;5056453;28;20005;-61
2022/03/12 00:05:52;;;;;;;0.00;0.00;;;9.60;99.90;;;;;;5055314;28;20029;-62
2022/03/12 00:08:34;;;;;;;0.00;0.00;;;9.60;99.90;;;;;;5054536;28;20060;-62
2022/03/12 00:11:00;;;;;;;0.00;0.00;;;9.50;99.90;;;;;;5043737;28;20079;-62
2022/03/12 00:13:26;;;;;;;0.00;0.00;;;9.50;99.90;;;;;;5055717;28;20028;-62
2022/03/12 00:15:52;;;;;;;0.00;0.00;;;9.40;99.90;;;;;;5051692;28;20021;-62
2022/03/12 00:18:19;;;;;;;;;;;9.40;99.90;;;;;;5043990;28;20009;-66
2022/03/12 00:20:53;;;;;;;0.00;0.00;;;9.50;99.90;;;;;;5050965;28;20203;-62
2022/03/12 00:23:20;;;;;;;0.00;0.00;;;9.40;99.90;;;;;;5053729;28;20044;-61
2022/03/12 00:25:47;;;;;;;0.00;0.00;;;9.50;99.90;;;;;;5053059;28;20006;-62
2022/03/12 00:28:12;;;;;;;0.00;0.00;;;9.50;99.90;;;;;;5053235;28;20009;-62
2022/03/12 00:30:39;;;;;;;0.00;0.00;;;9.50;99.90;;;;;;5047251;28;20022;-62
2022/03/12 00:33:05;;;;;;;0.00;0.00;;;9.50;99.90;;;;;;5055295;28;20017;-61
2022/03/12 00:35:31;;;;;;;0.00;0.00;;;9.50;99.90;;;;;;5054478;28;20083;-61
2022/03/12 00:37:57;;;;;;;0.00;0.00;;;9.40;99.90;;;;;;5034671;28;20061;-61
2022/03/12 00:40:23;;;;;;;;;;;9.30;99.90;;;;;;5053496;28;20080;-61
2022/03/12 00:42:49;;;;;;;0.00;0.00;;;9.20;99.90;;;;;;5051179;28;19919;-61
2022/03/12 00:45:15;;;;;;;0.00;0.00;;;9.20;99.90;;;;;;5031273;28;20034;-60
2022/03/12 00:47:41;;;;;;;0.00;0.00;;;9.00;99.90;;;;;;5018518;28;20065;-62
2022/03/12 00:50:07;;;;;;;0.00;0.00;;;8.90;99.90;;;;;;5051976;28;20021;-61
2022/03/12 00:52:33;;;;;;;0.00;0.00;;;8.90;99.90;;;;;;5053132;28;20084;-62
2022/03/12 00:54:59;;;;;;;0.00;0.00;;;8.80;99.90;;;;;;5053169;28;20017;-61
2022/03/12 00:57:25;;;;;;;0.00;0.00;;;8.80;99.90;;;;;;5036679;28;20039;-62
2022/03/12 00:59:51;;;;;;;0.00;0.00;;;8.80;99.90;;;;;;5053448;28;20005;-63
2022/03/12 01:02:18;;;;;;;0.00;0.00;;;8.80;99.90;;;;;;5053674;28;20085;-62
2022/03/12 01:04:44;;;;;;;0.00;0.00;;;8.70;99.90;;;;;;5038106;28;20046;-62
2022/03/12 01:07:11;;;;;;;0.00;0.00;;;8.70;99.90;;;;;;5046282;28;20014;-61
2022/03/12 01:09:38;;;;;;;0.00;0.00;;;8.70;99.90;;;;;;5047493;28;20029;-62
2022/03/12 01:12:07;;;;;;;0.00;0.00;;;8.70;99.90;;;;;;5051918;28;20243;-63
2022/03/12 01:14:32;;;;;;;0.00;0.00;;;8.70;99.90;;;;;;5053104;28;20044;-62
2022/03/12 01:16:59;;;;;;;0.00;0.00;;;8.70;99.90;;;;;;5044587;28;20021;-62
2022/03/12 01:19:26;;;;;;;0.00;0.00;;;8.70;99.90;;;;;;5054673;28;20048;-61
2022/03/12 01:21:52;;;;;;;0.00;0.00;;;8.60;99.90;;;;;;5053629;28;20044;-61
2022/03/12 01:24:17;;;;;;;;;;;8.70;99.90;;;;;;5055345;28;20021;-61
2022/03/12 01:26:43;;;;;;;0.00;0.00;;;8.70;99.90;;;;;;5036584;28;19928;-61
2022/03/12 01:29:09;;;;;;;0.00;0.00;;;8.70;99.90;;;;;;5053502;28;20010;-60
2022/03/12 01:31:35;;;;;;;0.00;0.00;;;8.70;99.90;;;;;;5054691;28;20033;-61
2022/03/12 01:34:04;;;;;;;0.00;0.00;;;8.70;99.90;;;;;;5053263;28;20052;-63
2022/03/12 01:36:31;;;;;;;0.00;0.00;;;8.70;99.90;;;;;;5055444;28;20056;-64
2022/03/12 01:39:01;;;;;;;0.00;0.00;;;8.70;99.90;;;;;;5052279;28;20037;-61
2022/03/12 01:41:32;;;;;;;0.00;0.00;;;8.70;99.90;;;;;;5029737;28;20029;-61
2022/03/12 01:43:59;;;;;;;0.00;0.00;;;8.70;99.90;;;;;;5054005;28;20025;-63
2022/03/12 01:46:29;;;;;;;0.00;0.00;;;8.70;99.90;;;;;;5058665;28;20040;-61
2022/03/12 01:48:59;;;;;;;0.00;0.00;;;8.70;99.90;;;;;;5056894;28;20033;-61
2022/03/12 01:51:26;;;;;;;0.00;0.00;;;8.70;99.90;;;;;;5047694;28;20030;-61
2022/03/12 01:53:54;;;;;;;0.00;0.00;;;8.70;99.90;;;;;;5057604;28;20017;-61
2022/03/12 01:56:20;;;;;;;0.00;0.00;;;8.70;99.90;;;;;;5059057;28;20022;-61
2022/03/12 01:58:47;;;;;;;0.00;0.00;;;8.70;99.90;;;;;;5046221;28;20058;-61
2022/03/12 02:01:14;;;;;;;0.00;0.00;;;8.70;99.90;;;;;;5040139;28;20049;-61
2022/03/12 02:03:40;;;;;;;0.00;0.00;;;8.70;99.90;;;;;;5059310;28;20025;-60
2022/03/12 02:06:06;;;;;;;0.00;0.00;;;8.70;99.90;;;;;;5058722;28;20044;-62
2022/03/12 02:08:32;;;;;;;0.00;0.00;;;8.70;99.90;;;;;;5058302;28;20045;-61
2022/03/12 02:10:59;;;;;;;0.00;0.00;;;8.70;99.90;;;;;;5041796;28;20022;-61
2022/03/12 02:13:27;;;;;;;0.00;0.00;;;8.80;99.90;;;;;;5059884;28;20037;-61
2022/03/12 02:16:08;;;;;;;0.00;0.00;;;8.70;99.90;;;;;;5056045;28;20032;-60
2022/03/12 02:18:36;;;;;;;0.00;0.00;;;8.70;99.90;;;;;;5059516;28;20064;-61
2022/03/12 02:21:03;;;;;;;0.00;0.00;;;8.70;99.90;;;;;;5057996;28;20045;-61
2022/03/12 02:23:29;;;;;;;0.00;0.00;;;8.70;99.90;;;;;;5059434;28;20037;-61
2022/03/12 02:26:02;;;;;;;0.00;0.00;;;8.60;99.90;;;;;;5058628;28;20028;-62
2022/03/12 02:28:27;;;;;;;0.00;0.00;;;8.60;99.90;;;;;;5054952;28;20036;-61
2022/03/12 02:30:55;;;;;;;0.00;0.00;;;8.70;99.90;;;;;;5059235;28;20010;-62
2022/03/12 02:33:28;;;;;;;0.00;0.00;;;8.60;99.90;;;;;;5058896;28;20029;-66
2022/03/12 02:35:54;;;;;;;0.00;0.00;;;8.60;99.90;;;;;;5056615;28;20069;-61
2022/03/12 02:38:22;;;;;;;0.00;0.00;;;8.60;99.90;;;;;;5040517;28;20044;-61
2022/03/12 02:40:51;;;;;;;0.00;0.00;;;8.50;99.90;;;;;;5038264;28;20078;-61
2022/03/12 02:43:26;;;;;;;0.00;0.00;;;8.50;99.90;;;;;;5047163;28;20037;-62
2022/03/12 02:46:01;;;;;;;0.00;0.00;;;8.40;99.90;;;;;;5058179;28;20034;-61
2022/03/12 02:48:26;;;;;;;0.00;0.00;;;8.40;99.90;;;;;;5056330;28;20017;-62
2022/03/12 02:50:53;;;;;;;0.00;0.00;;;8.40;99.90;;;;;;5058017;28;20037;-61
2022/03/12 02:53:19;;;;;;;0.00;0.00;;;8.40;99.90;;;;;;5057240;28;20024;-60
2022/03/12 02:55:45;;;;;;;0.00;0.00;;;8.40;99.90;;;;;;5035745;28;20014;-61
2022/03/12 02:58:16;;;;;;;0.00;0.00;;;8.40;99.90;;;;;;5058299;28;20033;-64
2022/03/12 03:00:42;;;;;;;0.00;0.00;;;8.30;99.90;;;;;;5056013;28;20009;-60
2022/03/12 03:03:08;;;;;;;0.00;0.00;;;8.30;99.90;;;;;;5057852;28;20037;-61
2022/03/12 03:05:46;;;;;;;;;;;8.30;99.90;;;;;;5053405;28;20022;-63
2022/03/12 03:08:18;;;;;;;0.00;0.00;;;8.30;99.90;;;;;;5038056;28;19968;-63
2022/03/12 03:10:49;;;;;;;0.00;0.00;;;8.30;99.90;;;;;;5055891;28;20030;-62
2022/03/12 03:13:17;;;;;;;0.00;0.00;;;8.20;99.90;;;;;;5055560;28;20429;-61
2022/03/12 03:16:06;;;;;;;0.00;0.00;;;8.20;99.90;;;;;;5056307;28;20080;-62
2022/03/12 03:18:35;;;;;;;0.00;0.00;;;8.20;99.90;;;;;;5055610;28;20068;-60
2022/03/12 03:21:05;;;;;;;0.00;0.00;;;8.20;99.90;;;;;;5055877;28;20021;-62
2022/03/12 03:23:31;;;;;;;0.00;0.00;;;8.20;99.90;;;;;;5057088;28;20018;-61
2022/03/12 03:25:59;;;;;;;0.00;0.00;;;8.20;99.90;;;;;;5056851;28;20009;-62
2022/03/12 03:28:25;;;;;;;0.00;0.00;;;8.30;99.90;;;;;;5055185;28;20040;-62
2022/03/12 03:30:50;;;;;;;0.00;0.00;;;8.30;99.90;;;;;;5056319;28;20033;-68
2022/03/12 03:33:21;;;;;;;0.00;0.00;;;8.30;99.90;;;;;;5016656;28;1155381;-62
2022/03/12 03:35:47;;;;;;;0.00;0.00;;;8.20;99.90;;;;;;5056628;28;20009;-62
2022/03/12 03:38:13;;;;;;;;;;;8.20;99.90;;;;;;5058176;28;20046;-61
2022/03/12 03:40:40;;;;;;;0.00;0.00;;;8.20;99.90;;;;;;5053618;28;19968;-61
2022/03/12 03:43:14;;;;;;;0.00;0.00;;;8.20;99.90;;;;;;5057144;28;20010;-61
2022/03/12 03:45:42;;;;;;;0.00;0.00;;;8.20;99.90;;;;;;5056266;28;20025;-63
2022/03/12 03:48:13;;;;;;;0.00;0.00;;;8.20;99.90;;;;;;5057187;28;20021;-63
2022/03/12 03:50:40;;;;;;;0.00;0.00;;;8.20;99.90;;;;;;5056488;28;20098;-63
2022/03/12 03:53:06;;;;;;;0.00;0.00;;;8.20;99.90;;;;;;5057662;28;20232;-62
2022/03/12 03:55:36;;;;;;;0.00;0.00;;;8.20;99.90;;;;;;5056738;28;20041;-61
2022/03/12 03:58:03;;;;;;;0.00;0.00;;;8.10;99.90;;;;;;5056572;28;20032;-61
2022/03/12 04:00:31;;;;;;;0.00;0.00;;;8.10;99.90;;;;;;5054836;28;20060;-60
2022/03/12 04:03:04;;;;;;;0.00;0.00;;;8.10;99.90;;;;;;5056328;28;20021;-63
2022/03/12 04:05:35;;;;;;;0.00;0.00;;;8.10;99.90;;;;;;5040068;28;20049;-61
2022/03/12 04:08:02;;;;;;;0.00;0.00;;;8.00;99.90;;;;;;5053950;28;20041;-61
2022/03/12 04:10:29;;;;;;;0.00;0.00;;;7.90;99.90;;;;;;5051588;28;20022;-61
2022/03/12 04:12:57;;;;;;;0.00;0.00;;;7.90;99.90;;;;;;5056045;28;20044;-61
2022/03/12 04:15:23;;;;;;;0.00;0.00;;;7.90;99.90;;;;;;5056317;28;20037;-61
2022/03/12 04:17:52;;;;;;;;;;;7.90;99.90;;;;;;5056709;28;20032;-62
2022/03/12 04:20:22;;;;;;;0.00;0.00;;;7.90;99.90;;;;;;5053565;28;19924;-61
2022/03/12 04:22:50;;;;;;;0.00;0.00;;;7.90;99.90;;;;;;5054886;28;20021;-61
2022/03/12 04:25:17;;;;;;;0.00;0.00;;;7.80;99.90;;;;;;5039558;28;20017;-61
2022/03/12 04:27:44;;;;;;;0.00;0.00;;;7.80;99.90;;;;;;5038089;28;20033;-61
2022/03/12 04:30:15;;;;;;;0.00;0.00;;;7.70;99.90;;;;;;5057196;28;20006;-62
2022/03/12 04:32:42;;;;;;;0.00;0.00;;;7.70;99.90;;;;;;5056661;28;20022;-61
2022/03/12 04:35:09;;;;;;;0.00;0.00;;;7.70;99.90;;;;;;5047775;28;20044;-62
2022/03/12 04:37:36;;;;;;;0.00;0.00;;;7.70;99.90;;;;;;5038683;28;20021;-62
2022/03/12 04:40:16;;;;;;;0.00;0.00;;;7.70;99.90;;;;;;5039563;28;20539;-62
2022/03/12 04:42:43;;;;;;;0.00;0.00;;;7.70;99.90;;;;;;5053279;28;20034;-63
2022/03/12 04:45:11;;;;;;;0.00;0.00;;;7.60;99.90;;;;;;5056463;28;20035;-62
2022/03/12 04:47:41;;;;;;;0.00;0.00;;;7.60;99.90;;;;;;5055556;28;20076;-61
2022/03/12 04:50:08;;;;;;;0.00;0.00;;;7.60;99.90;;;;;;5055085;28;20087;-61
2022/03/12 04:52:35;;;;;;;0.00;0.00;;;7.60;99.90;;;;;;5044044;28;20094;-62
2022/03/12 04:55:11;;;;;;;0.00;0.00;;;7.60;99.90;;;;;;5054629;28;20020;-61
2022/03/12 04:57:37;;;;;;;0.00;0.00;;;7.60;99.90;;;;;;5054970;28;20021;-61
2022/03/12 05:00:09;;;;;;;0.00;0.00;;;7.50;99.90;;;;;;5048738;28;20044;-61
2022/03/12 05:02:35;;;;;;;0.00;0.00;;;7.50;99.90;;;;;;5053154;28;20026;-60
2022/03/12 05:05:01;;;;;;;0.00;0.00;;;7.60;99.90;;;;;;5056426;28;20051;-61
2022/03/12 05:07:27;;;;;;;;;;;7.60;99.90;;;;;;5055142;28;20029;-61
2022/03/12 05:09:55;;;;;;;0.00;0.00;;;7.50;99.90;;;;;;5054886;28;19897;-63
2022/03/12 05:12:23;;;;;;;0.00;0.00;;;7.50;99.90;;;;;;5044643;28;20026;-62
2022/03/12 05:14:51;;;;;;;0.00;0.00;;;7.50;99.90;;;;;;5052664;28;20016;-61
2022/03/12 05:17:18;;;;;;;0.00;0.00;;;7.50;99.90;;;;;;5055619;28;20028;-62
2022/03/12 05:19:45;;;;;;;0.00;0.00;;;7.40;99.90;;;;;;5048416;28;20035;-61
2022/03/12 05:22:11;;;;;;;0.00;0.00;;;7.40;99.90;;;;;;5048419;28;20032;-61
2022/03/12 05:24:36;;;;;;;0.00;0.00;;;7.40;99.90;;;;;;5053495;28;20026;-61
2022/03/12 05:27:04;;;;;;;0.00;0.00;;;7.40;99.90;;;;;;5041723;28;20037;-61
2022/03/12 05:29:31;;;;;;;0.00;0.00;;;7.30;99.90;;;;;;5051647;28;20061;-63
2022/03/12 05:31:56;;;;;;;0.00;0.00;;;7.30;99.90;;;;;;5048314;28;20046;-62
2022/03/12 05:34:25;;;;;;;0.00;0.00;;;7.20;99.90;;;;;;5055754;28;20072;-61
2022/03/12 05:36:51;;;;;;;0.00;0.00;;;7.20;99.90;;;;;;5055438;28;20037;-61
2022/03/12 05:39:19;;;;;;;0.00;0.00;;;7.10;99.90;;;;;;5055807;28;20033;-64
2022/03/12 05:41:48;;;;;;;0.00;0.00;;;7.20;99.90;;;;;;5051380;28;20030;-61
2022/03/12 05:44:14;;;;;;;0.00;0.00;;;7.10;99.90;;;;;;5052082;28;20002;-61
2022/03/12 05:46:44;;;;;;;0.00;0.00;;;7.20;99.90;;;;;;5047791;28;20037;-61
2022/03/12 05:49:09;;;;;;;0.00;0.00;;;7.20;99.90;;;;;;5051605;28;20013;-62
2022/03/12 05:51:42;;;;;;;0.00;0.00;;;7.20;99.90;;;;;;5055969;28;20056;-65
2022/03/12 05:54:09;;;;;;;0.00;0.00;;;7.10;99.90;;;;;;5053868;28;20034;-65
2022/03/12 05:56:38;;;;;;;0.00;0.00;;;7.10;99.90;;;;;;5048393;28;20010;-61
2022/03/12 05:59:05;;;;;;;0.00;0.00;;;7.10;99.90;;;;;;5038392;28;20040;-61
2022/03/12 06:01:30;;;;;;;0.00;0.00;;;7.10;99.90;;;;;;5027290;28;20022;-62
2022/03/12 06:03:56;;;;;;;0.00;0.00;;;7.10;99.90;;;;;;5043294;28;20010;-62
2022/03/12 06:06:27;;;;;;;0.00;0.00;;;7.20;99.90;;;;;;5049537;28;20048;-63
2022/03/12 06:08:56;;;;;;;0.00;0.00;;;7.10;99.90;;;;;;5049895;28;20012;-62
2022/03/12 06:11:24;;;;;;;0.00;0.00;;;7.20;99.90;;;;;;5047119;28;20022;-61
2022/03/12 06:13:54;;;;;;;0.00;0.00;;;7.10;99.90;;;;;;5050669;28;20020;-62
2022/03/12 06:16:20;;;;;;;0.00;0.00;;;7.20;99.90;;;;;;5044383;28;20049;-61
2022/03/12 06:18:45;;;;;;;0.00;0.00;;;7.20;99.90;;;;;;5038676;28;20042;-61
2022/03/12 06:21:11;;;;;;;0.00;0.00;;;7.30;99.90;;;;;;5029300;28;20013;-62
2022/03/12 06:23:37;;;;;;;0.00;0.00;;;7.30;99.90;;;;;;5045047;28;20037;-61
2022/03/12 06:26:03;;;;;;;0.00;0.00;;;7.30;99.90;;;;;;5050323;28;20032;-64
2022/03/12 06:28:29;;;;;;;0.00;0.00;;;7.20;99.90;;;;;;5049282;28;20021;-63
2022/03/12 06:30:55;;;;;;;;;;;7.30;99.90;;;;;;5049662;28;20022;-62
2022/03/12 06:33:22;;;;;;;0.00;0.00;;;7.20;99.90;;;;;;5043629;28;19941;-62
2022/03/12 06:35:48;;;;;;;0.00;0.00;;;7.30;99.90;;;;;;5045812;28;20105;-62
2022/03/12 06:38:15;;;;;;;0.00;0.00;;;7.30;99.90;;;;;;5030944;28;20036;-64
2022/03/12 06:40:42;;;;;;;0.00;0.00;;;7.30;99.90;;;;;;5056195;28;20029;-63
2022/03/12 06:43:11;;;;;;;0.00;0.00;;;7.30;99.90;;;;;;5052934;28;20089;-61
2022/03/12 06:45:37;;;;;;;0.00;0.00;;;7.30;99.90;;;;;;5057188;28;20038;-61
2022/03/12 06:48:03;;;;;;;0.00;0.00;;;7.30;99.90;;;;;;5052897;28;20009;-61
2022/03/12 06:50:29;;;;;;;0.00;0.00;;;7.40;99.90;;;;;;5047976;28;20038;-61
2022/03/12 06:52:56;;;;;;;0.00;0.00;;;7.40;99.90;;;;;;5049608;28;20010;-61
2022/03/12 06:55:26;;;;;;;0.00;0.00;;;7.40;99.90;;;;;;5048319;28;20026;-61
2022/03/12 06:57:53;;;;;;;0.00;0.00;;;7.50;99.90;;;;;;5048822;28;20056;-61
2022/03/12 07:00:25;;;;;;;0.00;0.00;;;7.40;99.90;;;;;;5047523;28;20068;-61
2022/03/12 07:02:51;;;;;;;0.00;0.00;;;7.40;99.90;;;;;;5048025;28;20036;-61
2022/03/12 07:05:17;;;;;;;0.00;0.00;;;7.50;99.90;;;;;;5046806;28;20009;-60
2022/03/12 07:07:42;;;;;;;0.00;0.00;;;7.40;99.90;;;;;;5051618;28;20030;-62
2022/03/12 07:10:10;;;;;;;0.00;0.00;;;7.50;99.90;;;;;;5053386;28;20087;-62
2022/03/12 07:12:36;;;;;;;0.00;0.00;;;7.50;99.90;;;;;;5052339;28;20029;-61
2022/03/12 07:15:04;;;;;;;0.00;0.00;;;7.50;99.90;;;;;;5051191;28;20006;-61
2022/03/12 07:17:30;;;;;;;0.00;0.00;;;7.50;99.90;;;;;;5055552;28;20017;-62
2022/03/12 07:19:56;;;;;;;0.00;0.00;;;7.60;99.90;;;;;;5037689;28;20009;-62
2022/03/12 07:22:22;;;;;;;0.00;0.00;;;7.60;99.90;;;;;;5047983;28;20048;-61
2022/03/12 07:24:48;;;;;;;0.00;0.00;;;7.60;99.90;;;;;;5050456;28;20023;-61
2022/03/12 07:27:14;;;;;;;0.00;0.00;;;7.70;99.90;;;;;;5050329;28;20013;-61
2022/03/12 07:29:40;;;;;;;0.00;0.00;;;7.70;99.90;;;;;;5057310;28;20057;-62
2022/03/12 07:32:06;;;;;;;0.00;0.00;;;7.70;99.90;;;;;;5047443;28;20018;-61
2022/03/12 07:34:31;;;;;;;;;;;7.80;99.90;;;;;;5049648;28;20082;-62
2022/03/12 07:36:57;;;;;;;0.00;0.00;;;7.90;99.90;;;;;;5045138;28;19951;-62
2022/03/12 07:39:23;;;;;;;0.00;0.00;;;7.90;99.90;;;;;;5033507;28;20065;-61
2022/03/12 07:41:49;;;;;;;0.00;0.00;;;7.90;99.90;;;;;;5056924;28;20033;-62
2022/03/12 07:44:14;;;;;;;0.00;0.00;;;7.90;99.90;;;;;;5052144;28;20010;-61
2022/03/12 07:46:40;;;;;;;0.00;0.00;;;7.90;99.90;;;;;;5036696;28;20022;-62
2022/03/12 07:49:06;;;;;;;0.00;0.00;;;8.00;99.90;;;;;;5056435;28;20044;-62
2022/03/12 07:51:32;;;;;;;0.00;0.00;;;8.00;99.90;;;;;;5058801;28;20076;-60
2022/03/12 07:54:00;;;;;;;0.00;0.00;;;8.10;99.90;;;;;;5045762;28;20029;-61
2022/03/12 07:56:27;;;;;;;0.00;0.00;;;8.10;99.90;;;;;;5053382;28;20086;-61
2022/03/12 07:58:55;;;;;;;0.00;0.00;;;8.10;99.90;;;;;;5046873;28;20068;-63
2022/03/12 08:01:21;;;;;;;0.00;0.00;;;8.20;99.90;;;;;;5055743;28;20026;-62
2022/03/12 08:03:46;;;;;;;;;;;8.20;99.90;;;;;;5047340;28;20037;-61
2022/03/12 08:06:13;;;;;;;0.00;0.00;;;8.30;99.90;;;;;;5044961;28;19985;-61
2022/03/12 08:08:38;;;;;;;0.00;0.00;;;8.20;99.90;;;;;;5036459;28;20037;-62
2022/03/12 08:13:48;;;;;;;0.00;0.00;;;8.40;99.90;;;;;;5054913;28;20023;-61
2022/03/12 08:16:15;;;;;;;0.00;0.00;;;8.40;99.90;;;;;;5055953;28;20029;-62
2022/03/12 08:18:42;;;;;;;0.00;0.00;;;8.50;99.90;;;;;;5051738;28;20033;-61
2022/03/12 08:21:08;;;;;;;0.00;0.00;;;8.60;99.90;;;;;;5055915;28;20802;-62
2022/03/12 08:23:35;;;;;;;0.00;0.00;;;8.70;99.90;;;;;;5057420;28;20018;-61
2022/03/12 08:26:01;;;;;;;0.00;0.00;;;8.70;99.90;;;;;;5045389;28;20080;-62
2022/03/12 08:28:27;;;;;;;0.00;0.00;;;8.70;99.90;;;;;;5038619;28;20113;-61
2022/03/12 08:30:53;;;;;;;0.00;0.00;;;8.80;99.90;;;;;;5053620;28;20005;-62
2022/03/12 08:33:20;;;;;;;0.00;0.00;;;8.90;99.90;;;;;;5055838;28;20059;-61
2022/03/12 08:35:49;;;;;;;0.00;0.00;;;8.90;99.90;;;;;;5033177;28;20101;-61
2022/03/12 08:38:15;;;;;;;0.00;0.00;;;9.00;99.90;;;;;;5048986;28;20025;-60
2022/03/12 08:40:41;;;;;;;0.00;0.00;;;9.10;99.90;;;;;;5054699;28;20048;-60
2022/03/12 08:43:07;;;;;;;;;;;9.10;99.90;;;;;;5053648;28;20029;-61
2022/03/12 08:45:34;;;;;;;0.00;0.00;;;9.20;99.90;;;;;;5049557;28;19906;-60
2022/03/12 08:47:59;;;;;;;0.00;0.00;;;9.30;99.90;;;;;;5049459;28;20038;-61
2022/03/12 08:50:26;;;;;;;0.00;0.00;;;9.30;99.90;;;;;;5049985;28;20033;-60
2022/03/12 08:52:52;;;;;;;0.00;0.00;;;9.40;99.90;;;;;;5042905;28;20073;-60
2022/03/12 08:55:18;;;;;;;0.00;0.00;;;9.40;99.90;;;;;;5035040;28;20017;-61
2022/03/12 08:57:45;;;;;;;0.00;0.00;;;9.50;99.90;;;;;;5055422;28;20018;-62
2022/03/12 09:00:14;;;;;;;0.00;0.00;;;9.50;99.90;;;;;;5056591;28;20089;-64
2022/03/12 09:02:40;;;;;;;0.00;0.00;;;9.60;99.90;;;;;;5053771;28;20036;-62
2022/03/12 09:05:09;;;;;;;0.00;0.00;;;9.80;99.90;;;;;;5054039;28;20036;-63
2022/03/12 09:07:36;;;;;;;0.00;0.00;;;9.80;99.90;;;;;;5054450;28;20018;-63
2022/03/12 09:10:02;;;;;;;0.00;0.00;;;9.90;99.90;;;;;;5039009;28;20036;-62
2022/03/12 09:12:28;;;;;;;0.00;0.00;;;10.00;99.90;;;;;;5055562;28;20029;-62
2022/03/12 09:14:54;;;;;;;0.00;0.00;;;10.00;99.90;;;;;;5046271;28;20044;-62
2022/03/12 09:17:20;;;;;;;0.00;0.00;;;10.00;99.90;;;;;;5056622;28;20045;-63
2022/03/12 09:19:46;;;;;;;0.00;0.00;;;10.10;99.90;;;;;;5056833;28;20071;-61
2022/03/12 09:22:12;;;;;;;0.00;0.00;;;10.10;99.90;;;;;;5055512;28;20018;-61
2022/03/12 09:24:40;;;;;;;0.00;0.00;;;10.20;99.90;;;;;;5056306;28;20021;-63
2022/03/12 09:27:06;;;;;;;0.00;0.00;;;10.20;99.90;;;;;;5056917;28;20013;-71
2022/03/12 09:29:34;;;;;;;0.00;0.00;;;10.30;99.90;;;;;;5039204;28;20018;-69
2022/03/12 09:32:00;;;;;;;0.00;0.00;;;10.40;99.90;;;;;;5048747;28;20002;-61
2022/03/12 09:34:26;;;;;;;0.00;0.00;;;10.40;99.90;;;;;;5054450;28;20041;-62
2022/03/12 09:36:52;;;;;;;0.00;0.00;;;10.30;99.90;;;;;;5039583;28;20053;-61
2022/03/12 09:39:18;;;;;;;;;;;10.20;99.90;;;;;;5056082;28;20075;-63
2022/03/12 09:41:44;;;;;;;0.00;0.00;;;10.20;99.90;;;;;;5038479;28;19944;-62
2022/03/12 09:44:10;;;;;;;0.00;0.00;;;10.20;99.90;;;;;;5056449;28;20462;-61
2022/03/12 09:46:37;;;;;;;0.00;0.00;;;10.20;99.90;;;;;;5038212;28;20018;-63
2022/03/12 09:49:04;;;;;;;0.00;0.00;;;10.20;99.90;;;;;;5054262;28;20068;-62
2022/03/12 09:51:31;;;;;;;0.00;0.00;;;10.30;99.90;;;;;;5055933;28;20018;-62
2022/03/12 09:53:58;;;;;;;0.00;0.00;;;10.30;99.90;;;;;;5054801;28;20010;-62
2022/03/12 09:56:24;;;;;;;0.00;0.00;;;10.40;99.90;;;;;;5054431;28;20021;-61
2022/03/12 09:58:50;;;;;;;0.00;0.00;;;10.40;99.90;;;;;;5059376;28;20048;-63
2022/03/12 10:01:16;;;;;;;0.00;0.00;;;10.60;99.90;;;;;;5058470;28;20037;-61
2022/03/12 10:03:44;;;;;;;0.00;0.00;;;10.70;99.90;;;;;;5036258;28;20088;-61
2022/03/12 10:06:10;;;;;;;0.00;0.00;;;10.70;99.90;;;;;;5059586;28;20013;-62
2022/03/12 10:08:37;;;;;;;0.00;0.00;;;10.70;99.90;;;;;;5058877;28;20025;-62
2022/03/12 10:11:07;;;;;;;0.00;0.00;;;10.70;99.90;;;;;;5058600;28;20022;-66
2022/03/12 10:13:36;;;;;;;0.00;0.00;;;10.70;99.90;;;;;;5048559;28;20025;-62
2022/03/12 10:16:02;;;;;;;0.00;0.00;;;10.80;99.90;;;;;;5039483;28;20019;-62
2022/03/12 10:18:28;;;;;;;0.00;0.00;;;11.00;99.90;;;;;;5059638;28;20077;-62
2022/03/12 10:20:57;;;;;;;;;;;11.20;99.90;;;;;;5059059;28;20037;-63
2022/03/12 10:23:23;;;;;;;0.00;0.00;;;11.50;99.90;;;;;;5055293;28;19901;-62
2022/03/12 10:25:49;;;;;;;0.00;0.00;;;11.40;99.90;;;;;;5058859;28;20010;-61
2022/03/12 10:28:15;;;;;;;;;;;11.30;99.90;;;;;;5059256;28;20018;-62
2022/03/12 10:30:41;;;;;;;0.00;0.00;;;11.40;99.90;;;;;;5054538;28;19898;-62
2022/03/12 10:33:07;;;;;;;0.00;0.00;;;11.60;99.90;;;;;;5047197;28;20053;-62
2022/03/12 10:35:38;;;;;;;;;;;11.90;99.90;;;;;;5055273;28;20088;-62
2022/03/12 10:38:13;;;;;;;0.00;0.00;;;11.70;99.90;;;;;;5039750;28;19937;-62
2022/03/12 10:40:40;;;;;;;0.00;0.00;;;11.60;99.90;;;;;;5056741;28;20014;-63
2022/03/12 10:43:12;;;;;;;;;;;11.60;99.90;;;;;;5057214;28;20042;-61
2022/03/12 10:46:01;;;;;;;0.00;0.00;;;11.50;99.90;;;;;;5042194;28;20017;-62
2022/03/12 10:48:29;;;;;;;0.00;0.00;;;11.50;99.90;;;;;;5034287;28;20030;-62
2022/03/12 10:50:55;;;;;;;0.00;0.00;;;11.50;99.90;;;;;;5055679;28;20033;-61
2022/03/12 10:53:22;;;;;;;0.00;0.00;;;11.50;99.90;;;;;;5058759;28;20021;-62
2022/03/12 10:55:50;;;;;;;0.00;0.00;;;11.60;99.90;;;;;;5055177;28;20044;-61
2022/03/12 10:58:21;;;;;;;0.00;0.00;;;11.70;99.90;;;;;;5040792;28;20099;-61
2022/03/12 11:00:48;;;;;;;0.00;0.00;;;11.90;99.90;;;;;;5057489;28;20010;-62
2022/03/12 11:03:18;;;;;;;0.00;0.00;;;12.10;99.90;;;;;;5058524;28;20037;-61
2022/03/12 11:05:44;;;;;;;0.00;0.00;;;12.30;99.90;;;;;;5057945;28;20017;-62
2022/03/12 11:08:18;;;;;;;0.00;0.00;;;12.10;99.90;;;;;;5048041;28;20108;-62
2022/03/12 11:10:59;;;;;;;0.00;0.00;;;11.90;99.90;;;;;;5050492;28;20029;-62
2022/03/12 11:16:14;;;;;;;0.00;0.00;;;11.60;99.90;;;;;;5056752;28;20017;-62
2022/03/12 11:18:52;;;;;;;0.00;0.00;;;11.60;99.90;;;;;;5050784;28;20056;-65
2022/03/12 11:21:39;;;;;;;0.00;0.00;;;11.80;99.90;;;;;;5047990;28;20060;-61
2022/03/12 11:24:07;;;;;;;0.00;0.00;;;11.90;99.90;;;;;;5051879;28;20005;-63
2022/03/12 11:26:53;;;;;;;0.00;0.00;;;12.10;99.90;;;;;;5055603;28;20017;-66
2022/03/12 11:29:23;;;;;;;0.00;0.00;;;12.30;99.90;;;;;;5049691;28;20036;-65
2022/03/12 11:32:09;;;;;;;0.00;0.00;;;12.40;99.90;;;;;;5053041;28;20025;-62
2022/03/12 11:34:35;;;;;;;0.00;0.00;;;12.40;99.90;;;;;;5046255;28;20056;-62
2022/03/12 11:37:06;;;;;;;0.00;0.00;;;12.20;99.90;;;;;;5055400;28;20086;-62
2022/03/12 11:39:41;;;;;;;0.00;0.00;;;11.90;99.90;;;;;;5055509;28;20029;-62
2022/03/12 11:42:17;;;;;;;0.00;0.00;;;11.70;99.90;;;;;;5050208;28;20021;-62
2022/03/12 11:44:48;;;;;;;0.00;0.00;;;11.80;99.90;;;;;;5026125;28;20051;-62
2022/03/12 11:47:22;;;;;;;0.00;0.00;;;12.20;99.90;;;;;;5054441;28;20039;-65
2022/03/12 11:49:49;;;;;;;0.00;0.00;;;12.30;99.90;;;;;;5035805;28;20030;-62
2022/03/12 11:52:16;;;;;;;0.00;0.00;;;12.40;99.90;;;;;;5033890;28;20044;-64
2022/03/12 11:54:45;;;;;;;0.00;0.00;;;12.60;99.90;;;;;;5051994;28;20097;-62
2022/03/12 11:57:20;;;;;;;0.00;0.00;;;12.80;99.90;;;;;;5053075;28;20026;-65
2022/03/12 11:59:45;;;;;;;0.00;0.00;;;12.90;99.90;;;;;;5041670;28;20037;-63
2022/03/12 12:02:17;;;;;;;0.00;0.00;;;12.70;99.90;;;;;;5048271;28;20021;-69
2022/03/12 12:04:43;;;;;;;0.00;0.00;;;12.60;99.90;;;;;;5045557;28;20042;-65
2022/03/12 12:07:10;;;;;;;0.00;0.00;;;12.50;99.90;;;;;;5045388;28;20033;-65
2022/03/12 12:09:36;;;;;;;0.00;0.00;;;12.50;99.90;;;;;;5054941;28;20032;-62
2022/03/12 12:12:03;;;;;;;0.00;0.00;;;12.50;99.90;;;;;;5034272;28;20026;-63
2022/03/12 12:14:29;;;;;;;0.00;0.00;;;12.50;99.90;;;;;;5037645;28;20068;-64
2022/03/12 12:16:59;;;;;;;0.00;0.00;;;12.50;99.90;;;;;;5054593;28;20021;-63
2022/03/12 12:19:27;;;;;;;0.00;0.00;;;12.50;99.90;;;;;;5052991;28;20288;-63
2022/03/12 12:21:52;;;;;;;0.00;0.00;;;12.40;99.90;;;;;;5030739;28;20128;-63
2022/03/12 12:24:33;;;;;;;0.00;0.00;;;12.50;99.90;;;;;;5051171;28;20029;-65
2022/03/12 12:27:07;;;;;;;0.00;0.00;;;12.40;99.90;;;;;;5049652;28;20034;-62
2022/03/12 12:29:48;;;;;;;0.00;0.00;;;12.30;99.90;;;;;;5050890;28;20042;-62
2022/03/12 12:32:17;;;;;;;0.00;0.00;;;12.20;99.90;;;;;;5052493;28;20376;-63
2022/03/12 12:34:59;;;;;;;0.00;0.00;;;12.40;99.90;;;;;;5054497;28;20033;-66
2022/03/12 12:37:44;;;;;;;0.00;0.00;;;12.50;99.90;;;;;;5050556;28;20037;-62
2022/03/12 12:40:44;;;;;;;0.00;0.00;;;12.40;99.90;;;;;;5035210;28;20168;-63
2022/03/12 12:43:13;;;;;;;0.00;0.00;;;12.40;99.90;;;;;;5048017;28;20102;-63
2022/03/12 12:45:55;;;;;;;0.00;0.00;;;12.20;99.90;;;;;;5055453;28;20025;-64
2022/03/12 12:48:41;;;;;;;0.00;0.00;;;12.30;99.90;;;;;;5052849;28;20076;-64
2022/03/12 12:51:15;;;;;;;0.00;0.00;;;12.50;99.90;;;;;;5045538;28;20078;-64
2022/03/12 12:53:46;;;;;;;0.00;0.00;;;12.60;99.90;;;;;;5042626;28;20017;-63
2022/03/12 12:56:18;;;;;;;0.00;0.00;;;12.80;99.90;;;;;;5025222;28;20079;-63
2022/03/12 12:58:53;;;;;;;0.00;0.00;;;12.80;99.90;;;;;;5035330;28;20123;-62
2022/03/12 13:01:25;;;;;;;0.00;0.00;;;12.60;99.90;;;;;;5045231;28;20029;-62
2022/03/12 13:03:52;;;;;;;0.00;0.00;;;12.40;99.90;;;;;;5034348;28;20048;-61
2022/03/12 13:06:36;;;;;;;0.00;0.00;;;12.60;99.90;;;;;;5051896;28;20029;-60
2022/03/12 13:09:07;;;;;;;0.00;0.00;;;12.80;99.90;;;;;;5047449;28;20036;-61